EKBI

Billund Airport

Billund, Denmark
TAF EKBI 252255Z 2600/2624 25012KT 9999 BKN020 TEMPO 2600/2605 4000 BR BKN007 TEMPO 2605/2608 4000 BR -SHRA BKN007 FEW020CB TEMPO 2608/2610 SHRA FEW020CB TEMPO 2610/2618 26015G25KT SHRA SCT020CB PROB40 TEMPO 2610/2616 4000 TSRA
Issued Valid From Valid To
Apr-25 @ 22:55 UTC
(4 hours ago)
Apr-26 @ 00:00 UTC
(3 hours ago)
Apr-27 @ 00:00 UTC
(in 21 hours)
Apr-26 @ 00:00 to Apr-27 @ 00:00
TAF EKBI 252255Z 2600/2624 25012KT 9999 BKN020
Wind Visibility Clouds
250° at 12 knots 10,000+ meters
  • Broken at 2,000' AGL
Temporary Apr-26 @ 00:00 to Apr-26 @ 05:00
TEMPO 2600/2605 4000 BR BKN007
Visibility Clouds Conditions
4,007 meters
  • Broken at 700' AGL
  • Mist
Temporary Apr-26 @ 05:00 to Apr-26 @ 08:00
TEMPO 2605/2608 4000 BR -SHRA BKN007 FEW020CB
Visibility Clouds Conditions
4,007 meters
  • Broken at 700' AGL
  • Few at 2,000' AGL
  • Mist
  • Light Rain
Temporary Apr-26 @ 08:00 to Apr-26 @ 10:00
TEMPO 2608/2610 SHRA FEW020CB
Clouds Conditions
  • Few at 2,000' AGL
  • Rain
Temporary  (Probability 40%) Apr-26 @ 10:00 to Apr-26 @ 16:00
PROB40 TEMPO 2610/2616 4000 TSRA
Visibility Conditions
4,007 meters
  • Thunderstorm
  • Rain
Temporary Apr-26 @ 10:00 to Apr-26 @ 18:00
TEMPO 2610/2618 26015G25KT SHRA SCT020CB
Wind Clouds Conditions
260° at 15 knots
 Gusting to 25 knots
  • Scattered at 2,000' AGL
  • Rain
TAF EKBI 252255Z 2600/2624 25012KT 9999 BKN020 TEMPO 2600/2605 4000 BR BKN007 TEMPO 2605/2608 4000 BR -SHRA BKN007 FEW020CB TEMPO 2608/2610 SHRA FEW020CB TEMPO 2610/2618 26015G25KT SHRA SCT020CB PROB40 TEMPO 2610/2616 4000 TSRA
Issued Apr-25 @ 22:55 UTC
(4 hours ago)
Valid From Apr-26 @ 00:00 UTC
(3 hours ago)
Valid To Apr-27 @ 00:00 UTC
(in 21 hours)
Apr-26 @ 00:00 - Apr-27 @ 00:00
Wind Visibility
250° at 12 knots 10,000+ meters
Clouds
  • Broken at 2,000' AGL
Temporary Apr-26 @ 00:00 - Apr-26 @ 05:00
Clouds
  • Broken at 700' AGL
Conditions
  • Mist
Temporary Apr-26 @ 05:00 - Apr-26 @ 08:00
Clouds
  • Broken at 700' AGL
  • Few at 2,000' AGL
Conditions
  • Mist
  • Light Rain
Temporary Apr-26 @ 08:00 - Apr-26 @ 10:00
Clouds
  • Few at 2,000' AGL
Conditions
  • Rain
Probability 40% Temporary Apr-26 @ 10:00 - Apr-26 @ 16:00
Conditions
  • Thunderstorm
  • Rain
Temporary Apr-26 @ 10:00 - Apr-26 @ 18:00
Wind
260° at 15 knots
 Gusting to 25 knots
Clouds
  • Scattered at 2,000' AGL
Conditions
  • Rain